Rio Hondo, Texas
Current Conditions -  °F | °C
As of 9:52 AM on Friday 24 Oct 2014 (Local Time) from KHRL Reporting Station
Clear Clear  
Wind Chill: 24°   Ceiling: Unl
Heat Index: 24°   Visibility: 10mi
Dew Point: 20°   Wind: 7mph
Humidity: 76%   Direction: 360°N
Pressure: 30.13"   Gusts: NA
Location:  26.24°N, 97.58°W
Report Text: KHRL 241452Z 36006KT 10SM CLR 24/20 A3013 RMK AO2 SLP204 60001 T02440200 53018
Loading
Personal Weather Stations






























Interactive Weather Map
Tropical Storm Tracking
New forecast layout! Learn more

10-Day Weather Forecast

Advertisements
Track Severe Weather on mobile